Latest Weather Observations for Merriwa

IDN60801

Issued at 3:42 am EDT Saturday 19 October 2019 (issued every 10 minutes, with the page automatically refreshed every 10 minutes)

About weather observations | Map of weather stations | Latest weather observations for NSW | Other Formats
Station Details ID: 061287 Name: MERRIWA (ROSCOMMON) Lat: -32.19 Lon: 150.17 Height: 375.0 m
Data from the previous 72 hours. | See also: Recent months at Merriwa
Date/Time
EDT
Temp
°C
App
Temp
°C
Dew
Point
°C
Rel
Hum
%
Delta-T
°C
Wind Press
QNH
hPa
Press
MSL
hPa
Rain since
9am
mm
Dir  Spd
km/h
Gust
km/h
Spd
kts
Gust
kts
19/03:30am 6.2 3.3 -7.7 36 4.5 CALM 0 0 0 0 1016.7 1016.1 0.0
19/03:00am 8.0 3.8 -7.7 32 5.2 SW 7 9 4 5 1016.7 1016.1 0.0
19/02:30am 8.6 4.5 -7.1 32 5.4 SW 7 9 4 5 1016.7 1016.1 0.0
19/02:00am 10.0 6.0 -7.2 29 6.0 NNE 6 9 3 5 1016.8 1016.2 0.0
19/01:30am 10.8 6.2 -7.4 27 6.4 NNW 9 11 5 6 1016.9 1016.3 0.0
19/01:00am 10.7 5.4 -7.5 27 6.3 NW 13 15 7 8 1017.1 1016.5 0.0
19/12:30am 11.7 7.6 -7.1 26 6.7 NW 7 11 4 6 1017.3 1016.6 0.0
19/12:00am 11.0 5.7 -7.7 26 6.5 NW 13 15 7 8 1017.3 1016.6 0.0
 
Date/Time
EDT
Temp
°C
App
Temp
°C
Dew
Point
°C
Rel
Hum
%
Delta-T
°C
Wind Press
QNH
hPa
Press
MSL
hPa
Rain since
9am
mm
Dir  Spd
km/h
Gust
km/h
Spd
kts
Gust
kts
18/11:30pm 11.4 6.0 -7.9 25 6.7 NW 13 15 7 8 1017.4 1016.7 0.0
18/11:00pm 13.4 8.0 -7.9 22 7.6 WNW 13 15 7 8 1017.3 1016.6 0.0
18/10:30pm 13.5 8.1 -8.4 21 7.7 WNW 13 15 7 8 1017.3 1016.6 0.0
18/10:00pm 12.3 6.5 -8.2 23 7.1 WNW 15 17 8 9 1017.3 1016.6 0.0
18/09:30pm 14.4 9.1 -7.6 21 8.0 WNW 13 15 7 8 1017.0 1016.4 0.0
18/09:00pm 15.8 10.8 -8.4 18 8.8 WNW 11 13 6 7 1016.8 1016.2 0.0
18/08:30pm 15.0 10.4 -8.4 19 8.4 WNW 9 11 5 6 1016.5 1015.9 0.0
18/08:00pm 16.1 11.4 -8.9 17 9.0 WSW 9 13 5 7 1016.3 1015.7 0.0
18/07:30pm 19.4 14.7 -8.7 14 10.6 W 9 11 5 6 1016.0 1015.4 0.0
18/07:00pm 21.8 16.4 -8.8 12 11.8 W 13 17 7 9 1015.9 1015.3 0.0
18/06:30pm 23.1 16.0 -8.9 11 12.5 WNW 22 30 12 16 1015.7 1015.0 0.0
18/06:00pm 23.9 17.2 -8.3 11 12.8 WNW 20 32 11 17 1015.4 1014.7 0.0
18/05:30pm 24.5 16.6 -9.1 10 13.2 NW 26 43 14 23 1015.3 1014.6 0.0
18/05:00pm 25.3 18.9 -7.2 11 13.4 WNW 19 33 10 18 1015.3 1014.6 0.0
18/04:30pm 25.7 19.6 -8.2 10 13.7 WNW 17 33 9 18 1015.3 1014.6 0.0
18/04:00pm 25.6 19.0 -9.6 9 13.9 W 19 39 10 21 1015.4 1014.7 0.0
18/03:30pm 25.2 18.4 -9.9 9 13.7 WSW 20 33 11 18 1015.8 1015.2 0.0
18/03:00pm 25.3 18.9 -11.3 8 13.9 WNW 17 32 9 17 1016.0 1015.4 0.0
18/02:30pm 24.4 17.7 -7.9 11 13.0 W 20 33 11 18 1016.5 1015.9 0.0
18/02:00pm 24.1 17.3 -9.4 10 13.0 W 20 33 11 18 1017.0 1016.4 0.0
18/01:30pm 24.0 17.4 -7.1 12 12.7 WNW 20 32 11 17 1017.6 1016.9 0.0
18/01:00pm 22.5 16.0 -6.3 14 11.7 WNW 20 32 11 17 1017.7 1017.0 0.0
18/12:30pm 22.4 16.1 -3.8 17 11.2 W 20 32 11 17 1018.3 1017.7 0.0
18/12:00pm 21.3 14.9 -4.7 17 10.8 WSW 20 28 11 15 1018.7 1018.1 0.0
18/11:30am 20.9 15.3 -2.9 20 10.2 W 17 24 9 13 1019.1 1018.5 0.0
18/11:00am 19.4 13.3 -3.5 21 9.5 W 19 26 10 14 1019.4 1018.8 0.0
18/10:30am 18.9 13.1 -1.5 25 8.8 WNW 19 28 10 15 1019.5 1018.9 0.0
18/10:00am 17.2 11.8 -1.0 29 7.8 W 17 24 9 13 1019.7 1019.1 0.0
18/09:30am 15.9 10.1 -1.6 30 7.4 W 19 32 10 17 1019.6 1019.0 0.0
18/09:00am 15.2 9.3 -0.9 33 6.8 W 20 28 11 15 1019.5 1018.9 0.0
18/08:30am 13.9 8.1 -1.7 34 6.4 W 19 26 10 14 1019.4 1018.8 0.0
18/08:00am 12.6 7.2 -1.3 38 5.7 WNW 17 24 9 13 1019.1 1018.5 0.0
18/07:30am 11.1 5.6 -2.0 40 5.2 WNW 17 22 9 12 1018.9 1018.3 0.0
18/07:00am 9.3 3.8 -2.3 44 4.5 WNW 17 20 9 11 1018.5 1017.9 0.0
18/06:30am 7.0 1.9 -2.2 52 3.5 WNW 15 17 8 9 1018.4 1017.8 0.0
18/06:00am 7.1 2.6 -3.1 48 3.8 WNW 11 13 6 7 1018.3 1017.7 0.0
18/05:30am 8.8 3.2 -2.5 45 4.3 NW 17 20 9 11 1017.8 1017.1 0.0
18/05:00am 8.0 2.4 -2.9 46 4.1 NW 17 20 9 11 1017.7 1017.0 0.0
18/04:30am 7.6 3.1 -3.3 46 4.0 NW 11 15 6 8 1017.7 1017.0 0.0
18/04:00am 8.7 3.9 -2.6 45 4.3 W 13 17 7 9 1017.6 1016.9 0.0
18/03:30am 7.9 3.7 -3.6 44 4.2 W 9 13 5 7 1017.6 1016.9 0.0
18/03:00am 8.1 3.6 -3.4 44 4.3 WNW 11 13 6 7 1017.8 1017.1 0.0
18/02:30am 9.6 5.1 -3.3 40 4.9 W 11 13 6 7 1017.9 1017.2 0.0
18/02:00am 10.9 6.7 -3.9 35 5.6 W 9 15 5 8 1018.1 1017.5 0.0
18/01:30am 10.1 4.8 -3.6 38 5.2 WNW 15 17 8 9 1018.0 1017.3 0.0
18/01:00am 10.5 5.5 -4.7 34 5.6 W 13 15 7 8 1018.0 1017.3 0.0
18/12:30am 10.8 5.8 -4.4 34 5.7 WNW 13 15 7 8 1018.0 1017.3 0.0
18/12:00am 10.1 5.7 -5.4 33 5.6 NW 9 11 5 6 1017.6 1016.9 0.0
 
Date/Time
EDT
Temp
°C
App
Temp
°C
Dew
Point
°C
Rel
Hum
%
Delta-T
°C
Wind Press
QNH
hPa
Press
MSL
hPa
Rain since
9am
mm
Dir  Spd
km/h
Gust
km/h
Spd
kts
Gust
kts
17/11:30pm 10.7 5.3 -4.9 33 5.8 WNW 15 17 8 9 1017.1 1016.5 0.0
17/11:00pm 11.3 6.2 -5.2 31 6.1 WNW 13 15 7 8 1016.9 1016.3 0.0
17/10:30pm 12.5 7.0 -5.5 28 6.7 W 15 19 8 10 1016.7 1016.1 0.0
17/10:00pm 14.3 9.6 -5.4 25 7.5 W 11 17 6 9 1016.6 1016.0 0.0
17/09:30pm 15.0 9.8 -5.9 23 7.9 W 13 17 7 9 1016.2 1015.6 0.0
17/09:00pm 16.1 10.1 -6.2 21 8.5 WSW 17 24 9 13 1015.7 1015.0 0.0
17/08:30pm 16.2 10.6 -6.1 21 8.5 WSW 15 22 8 12 1015.3 1014.6 0.0
17/08:00pm 17.3 10.9 -6.5 19 9.1 WSW 19 30 10 16 1014.6 1013.9 0.0
17/07:30pm 17.8 11.3 -6.1 19 9.3 WSW 20 35 11 19 1013.8 1013.2 0.0
17/07:00pm 18.7 10.7 -6.1 18 9.8 W 28 39 15 21 1013.0 1012.3 0.0
17/06:30pm 19.7 11.6 -6.8 16 10.4 W 28 43 15 23 1012.5 1011.8 0.0
17/06:14pm 20.3 11.2 -7.1 15 10.7 W 33 52 18 28 1012.1 1011.4 0.0
17/06:00pm 20.7 10.5 -6.8 15 10.9 WNW 39 52 21 28 1011.7 1011.0 0.0
17/05:30pm 22.0 12.3 -5.8 15 11.4 W 37 59 20 32 1011.2 1010.6 0.0
17/05:11pm 22.0 13.3 -3.4 18 10.9 W 33 56 18 30 1011.1 1010.5 0.0
17/05:07pm 21.7 12.6 -3.6 18 10.8 W 35 52 19 28 1011.0 1010.3 0.0
17/05:00pm 21.6 12.2 -3.0 19 10.6 WSW 37 54 20 29 1010.9 1010.2 0.0
17/04:30pm 22.8 13.8 0.0 22 10.5 W 37 56 20 30 1010.7 1010.0 0.0
17/04:01pm 23.6 15.5 3.0 26 10.1 W 35 54 19 29 1010.4 1009.7 0.0
17/04:00pm 23.7 15.2 3.1 26 10.2 W 37 54 20 29 1010.4 1009.7 0.0
17/03:30pm 23.8 14.1 0.2 21 11.0 W 41 69 22 37 1010.2 1009.5 0.0
17/03:00pm 25.6 17.1 1.0 20 11.8 W 35 54 19 29 1009.9 1009.2 0.0
17/02:30pm 26.5 17.5 2.4 21 11.9 W 39 59 21 32 1009.7 1009.0 0.0
17/02:06pm 26.1 17.5 0.0 18 12.3 W 35 56 19 30 1009.8 1009.1 0.0
17/02:00pm 26.1 17.7 1.4 20 12.0 W 35 52 19 28 1009.7 1009.0 0.0
17/01:30pm 25.5 16.8 4.0 25 10.9 WNW 39 61 21 33 1009.8 1009.1 0.0
17/01:00pm 26.2 17.3 2.8 22 11.7 W 39 57 21 31 1009.8 1009.1 0.0
17/12:58pm 26.2 18.0 4.6 25 11.1 W 37 57 20 31 1009.8 1009.1 0.0
17/12:52pm 26.1 18.3 5.1 26 10.9 W 35 54 19 29 1009.7 1009.0 0.0
17/12:40pm 26.9 19.2 6.9 28 10.7 W 37 59 20 32 1009.5 1008.8 0.0
17/12:38pm 26.8 19.3 6.2 27 10.9 W 35 59 19 32 1009.5 1008.8 0.0
17/12:36pm 26.6 19.6 6.1 27 10.8 W 32 50 17 27 1009.6 1008.9 0.0
17/12:30pm 26.0 19.3 8.0 32 9.8 W 33 46 18 25 1009.6 1008.9 0.0
17/12:10pm 25.9 19.8 8.4 33 9.6 W 30 48 16 26 1009.8 1009.1 0.0
17/12:00pm 25.4 19.4 8.8 35 9.2 W 30 44 16 24 1009.9 1009.2 0.0
17/11:39am 25.7 18.8 8.7 34 9.4 W 35 56 19 30 1009.7 1009.0 0.0
17/11:30am 25.5 19.1 8.5 34 9.3 WSW 32 46 17 25 1009.6 1008.9 0.0
17/11:04am 25.6 19.7 9.0 35 9.2 WSW 30 50 16 27 1009.4 1008.7 0.0
17/11:00am 25.9 20.2 9.7 36 9.1 W 30 43 16 23 1009.5 1008.8 0.0
17/10:30am 25.5 19.6 7.6 32 9.7 W 28 39 15 21 1009.3 1008.6 0.0
17/10:00am 24.6 19.9 9.3 38 8.5 WNW 24 39 13 21 1009.3 1008.6 0.0
17/09:30am 22.9 20.5 12.8 53 5.9 W 17 22 9 12 1009.4 1008.7 0.0
17/09:00am 20.6 17.9 12.8 61 4.5 W 19 24 10 13 1009.3 1008.6 0.0
17/08:30am 19.0 17.3 13.6 71 3.1 W 15 20 8 11 1008.7 1008.0 0.0
17/08:00am 17.8 18.1 15.1 84 1.6 NW 7 11 4 6 1008.5 1007.8 0.0
17/07:30am 14.1 15.2 13.5 96 0.3 CALM 0 0 0 0 1008.5 1007.8 0.0
17/07:00am 12.1 12.6 11.5 96 0.3 CALM 0 4 0 2 1008.4 1007.7 0.0
17/06:30am 11.7 11.9 10.6 93 0.6 CALM 0 0 0 0 1007.8 1007.1 0.0
17/06:00am 12.5 12.3 11.7 95 0.4 NW 4 9 2 5 1008.0 1007.3 0.0
17/05:30am 12.7 11.9 11.8 94 0.5 WNW 7 9 4 5 1007.5 1006.8 0.0
17/05:00am 13.1 13.7 11.8 92 0.7 CALM 0 0 0 0 1007.4 1006.7 0.0
17/04:30am 13.3 12.5 11.0 86 1.2 S 6 11 3 6 1007.1 1006.4 0.0
17/04:00am 14.3 13.0 12.5 89 1.0 SSW 11 15 6 8 1007.5 1006.8 0.0
17/03:30am 14.6 13.7 12.5 87 1.2 S 9 13 5 7 1007.9 1007.2 0.0
17/03:00am 15.4 13.9 13.1 86 1.3 S 13 17 7 9 1008.1 1007.4 0.0
17/02:30am 15.4 14.6 12.9 85 1.4 E 9 11 5 6 1008.3 1007.6 0.0
17/02:00am 16.0 15.3 13.3 84 1.5 E 9 11 5 6 1008.9 1008.2 0.0
17/01:30am 16.2 15.9 12.7 80 2.0 S 6 11 3 6 1009.8 1009.1 0.0
17/01:00am 17.1 15.8 13.8 81 1.9 NNE 13 17 7 9 1010.0 1009.3 0.0
17/12:30am 17.2 16.0 13.9 81 1.9 NE 13 15 7 8 1010.2 1009.5 0.0
17/12:00am 19.0 18.8 14.7 76 2.5 SE 9 13 5 7 1011.2 1010.6 0.0
 
Date/Time
EDT
Temp
°C
App
Temp
°C
Dew
Point
°C
Rel
Hum
%
Delta-T
°C
Wind Press
QNH
hPa
Press
MSL
hPa
Rain since
9am
mm
Dir  Spd
km/h
Gust
km/h
Spd
kts
Gust
kts
16/11:30pm 19.3 18.8 15.0 76 2.6 ENE 11 17 6 9 1011.3 1010.7 0.0
16/11:00pm 19.4 18.6 15.1 76 2.6 ESE 13 17 7 9 1011.7 1011.0 0.0
16/10:30pm 20.8 18.8 14.9 69 3.5 E 19 26 10 14 1010.6 1009.9 0.0
16/10:00pm 21.7 19.7 13.9 61 4.6 E 17 24 9 13 1010.5 1009.8 0.0
16/09:30pm 22.3 18.2 4.4 31 8.9 SSE 15 20 8 11 1010.6 1009.9 0.0
16/09:00pm 22.8 19.2 4.8 31 9.1 SW 13 19 7 10 1011.5 1010.9 0.0
16/08:30pm 23.3 18.5 4.8 30 9.4 SSW 19 28 10 15 1010.4 1009.7 0.0
16/08:00pm 23.8 19.0 4.7 29 9.7 SSW 19 24 10 13 1010.4 1009.7 0.0
16/07:30pm 24.0 22.7 7.6 35 8.8 WSW 4 15 2 8 1009.8 1009.1 0.0
16/07:00pm 25.7 22.0 7.8 32 9.7 NNW 17 22 9 12 1009.4 1008.7 0.0
16/06:30pm 27.2 23.1 6.0 26 11.2 NNE 17 28 9 15 1010.2 1009.5 0.0
16/06:00pm 28.6 24.8 2.0 18 13.3 WSW 11 13 6 7 1009.7 1009.0 0.0
16/05:30pm 29.1 23.2 1.6 17 13.7 WSW 22 32 12 17 1009.2 1008.5 0.0
16/05:00pm 30.6 25.4 3.6 18 14.0 WSW 20 30 11 16 1008.5 1007.8 0.0
16/04:48pm 29.9 23.1 3.0 18 13.8 WSW 28 39 15 21 1008.6 1007.9 0.0
16/04:30pm 30.6 26.4 1.9 16 14.5 W 13 17 7 9 1008.2 1007.5 0.0
16/04:00pm 30.8 25.8 1.2 15 14.8 WSW 17 24 9 13 1008.4 1007.7 0.0
16/03:30pm 30.5 26.2 1.0 15 14.6 WSW 13 19 7 10 1008.5 1007.8 0.0
16/03:00pm 29.5 22.6 0.2 15 14.3 SW 26 37 14 20 1009.3 1008.6 0.0
16/02:30pm 30.9 25.2 3.0 17 14.4 WSW 22 32 12 17 1009.5 1008.8 0.0
16/02:00pm 32.2 27.1 4.1 17 14.9 W 20 32 11 17 1009.7 1009.0 0.0
16/01:30pm 31.2 25.7 4.1 18 14.2 W 22 33 12 18 1010.0 1009.3 0.0
16/01:12pm 31.3 24.7 4.2 18 14.3 WNW 28 46 15 25 1010.3 1009.6 0.0
16/01:00pm 31.3 25.2 0.6 14 15.2 WNW 22 32 12 17 1010.3 1009.6 0.0
16/12:30pm 32.1 28.4 0.2 13 15.8 NW 9 19 5 10 1010.3 1009.6 0.0
16/12:00pm 31.8 27.9 1.0 14 15.4 W 11 15 6 8 1010.9 1010.2 0.0
16/11:30am 29.8 26.0 -0.5 14 14.6 SW 9 13 5 7 1011.5 1010.9 0.0
16/11:00am 29.2 25.5 -0.1 15 14.1 SSW 9 13 5 7 1012.1 1011.4 0.0
16/10:30am 28.3 25.3 0.9 17 13.4 NE 6 9 3 5 1012.6 1011.9 0.0
16/10:00am 26.6 23.8 1.8 20 12.2 E 6 9 3 5 1012.6 1011.9 0.0
16/09:30am 24.7 21.7 2.2 23 11.0 N 7 11 4 6 1012.9 1012.2 0.0
16/09:00am 21.7 18.9 1.9 27 9.4 WNW 6 9 3 5 1013.3 1012.6 0.0
16/08:30am 20.0 16.5 1.4 29 8.6 W 9 15 5 8 1013.4 1012.8 0.0
16/08:00am 18.0 15.3 2.7 36 7.2 WNW 6 9 3 5 1013.4 1012.8 0.0
16/07:30am 14.4 11.9 4.7 52 4.6 WNW 7 9 4 5 1013.3 1012.6 0.0
16/07:00am 11.3 9.9 5.4 67 2.8 WSW 2 6 1 3 1012.9 1012.2 0.0
16/06:30am 9.6 8.1 2.9 63 2.9 CALM 0 0 0 0 1012.7 1012.0 0.0
16/06:00am 10.3 7.4 2.7 59 3.3 WNW 7 9 4 5 1012.4 1011.7 0.0
16/05:30am 10.4 7.5 2.5 58 3.5 W 7 9 4 5 1012.2 1011.5 0.0
16/05:00am 11.7 8.9 3.0 55 3.9 WNW 7 9 4 5 1011.8 1011.1 0.0
16/04:30am 12.2 8.3 3.4 55 4.0 WSW 13 15 7 8 1011.8 1011.1 0.0
16/04:00am 10.4 7.7 2.7 59 3.4 WNW 6 9 3 5 1011.3 1010.7 0.0

Other formats

Comma delimited format used in spreadsheet applications
http://www.bom.gov.au/fwo/IDN60801/IDN60801.95754.axf

JavaScript Object Notation format (JSON) in row-major order
http://www.bom.gov.au/fwo/IDN60801/IDN60801.95754.json

Data quality

Most of these data are generated automatically and are frequently updated. Quality checks on data are not normally performed. It is possible for incorrect values to appear. Refer to information at About Latest Weather Observations and please check the disclaimer before using these data.